Time;durP1;ratioP1;P1;durP2;ratioP2;P2;SDS_P1;SDS_P2;PMS_P1;PMS_P2;Temp;Humidity;BMP_temperature;BMP_pressure;BME280_temperature;BME280_humidity;BME280_pressure;Samples;Min_cycle;Max_cycle;Signal;HPM_P1;HPM_P2
2021/07/20 00:01:20;;;;;;;9.05;6.38;;;20.80;55.90;;;;;;1488331;39;20126;-60
2021/07/20 00:02:47;;;;;;;8.02;6.03;;;20.80;55.90;;;;;;1488059;39;20036;-60
2021/07/20 00:04:08;;;;;;;8.95;6.28;;;20.80;56.00;;;;;;1488233;39;20336;-60
2021/07/20 00:05:29;;;;;;;8.77;6.80;;;20.80;55.90;;;;;;1487471;39;20032;-61
2021/07/20 00:06:50;;;;;;;10.38;7.00;;;20.70;56.00;;;;;;1487705;39;20019;-60
2021/07/20 00:08:12;;;;;;;10.82;6.90;;;20.70;56.00;;;;;;1486991;39;20059;-60
2021/07/20 00:09:33;;;;;;;10.98;7.18;;;20.70;56.10;;;;;;1487766;39;20121;-61
2021/07/20 00:11:00;;;;;;;9.68;6.65;;;20.70;56.20;;;;;;1490206;39;20030;-60
2021/07/20 00:12:21;;;;;;;9.68;6.55;;;20.70;56.30;;;;;;1489795;39;20040;-61
2021/07/20 00:13:42;;;;;;;7.72;6.22;;;20.70;56.30;;;;;;1486966;39;20040;-61
2021/07/20 00:15:05;;;;;;;11.38;7.22;;;20.70;56.20;;;;;;1487698;39;20109;-61
2021/07/20 00:16:27;;;;;;;8.75;6.40;;;20.70;56.30;;;;;;1489323;39;20043;-60
2021/07/20 00:17:51;;;;;;;9.10;6.60;;;20.60;56.30;;;;;;1488367;39;20048;-60
2021/07/20 00:19:13;;;;;;;9.30;6.45;;;20.60;56.30;;;;;;1488024;39;20059;-60
2021/07/20 00:20:35;;;;;;;8.30;6.72;;;20.60;56.30;;;;;;1488309;39;20028;-60
2021/07/20 00:21:56;;;;;;;9.70;5.93;;;20.60;56.40;;;;;;1488034;39;20327;-61
2021/07/20 00:23:18;;;;;;;8.82;6.45;;;20.60;56.50;;;;;;1487035;39;20086;-60
2021/07/20 00:24:39;;;;;;;12.20;7.55;;;20.50;56.40;;;;;;1488226;39;20024;-61
2021/07/20 00:26:01;;;;;;;8.38;6.53;;;20.50;56.40;;;;;;1487554;39;20364;-61
2021/07/20 00:27:22;;;;;;;9.23;6.53;;;20.50;56.40;;;;;;1489485;39;20427;-60
2021/07/20 00:28:43;;;;;;;9.13;6.60;;;20.50;56.40;;;;;;1491217;39;20031;-60
2021/07/20 00:30:05;;;;;;;11.07;6.45;;;20.50;56.40;;;;;;1490376;39;20341;-60
2021/07/20 00:31:26;;;;;;;12.02;7.15;;;20.50;56.50;;;;;;1490592;39;20082;-61
2021/07/20 00:32:47;;;;;;;10.25;6.65;;;20.50;57.10;;;;;;1483994;40;20167;-61
2021/07/20 00:34:08;;;;;;;10.65;6.65;;;20.50;56.60;;;;;;1488173;39;20098;-60
2021/07/20 00:35:29;;;;;;;9.48;6.25;;;20.40;56.50;;;;;;1487116;39;20028;-64
2021/07/20 00:36:50;;;;;;;8.65;5.88;;;20.40;56.60;;;;;;1488927;39;20043;-63
2021/07/20 00:38:12;;;;;;;8.60;6.15;;;20.40;56.60;;;;;;1489165;39;20086;-60
2021/07/20 00:39:33;;;;;;;8.65;6.35;;;20.30;56.60;;;;;;1488312;39;20039;-61
2021/07/20 00:40:54;;;;;;;9.43;6.90;;;20.40;56.70;;;;;;1489579;39;20039;-61
2021/07/20 00:42:15;;;;;;;9.73;6.55;;;20.30;56.70;;;;;;1488804;39;20060;-60
2021/07/20 00:43:36;;;;;;;7.97;6.18;;;20.30;56.70;;;;;;1490964;39;20012;-61
2021/07/20 00:44:57;;;;;;;8.70;6.20;;;20.30;56.70;;;;;;1488322;39;20027;-61
2021/07/20 00:46:18;;;;;;;9.63;7.00;;;20.30;56.80;;;;;;1488918;39;20040;-61
2021/07/20 00:47:39;;;;;;;8.55;6.63;;;20.30;56.80;;;;;;1489808;39;20331;-61
2021/07/20 00:49:00;;;;;;;10.73;7.97;;;20.30;56.80;;;;;;1488288;39;20036;-61
2021/07/20 00:50:25;;;;;;;10.70;7.53;;;20.30;56.90;;;;;;1486492;39;20059;-61
2021/07/20 00:51:47;;;;;;;10.32;6.93;;;20.20;57.00;;;;;;1488762;39;20035;-61
2021/07/20 00:53:10;;;;;;;9.73;6.80;;;20.20;57.00;;;;;;1487815;39;20070;-61
2021/07/20 00:54:31;;;;;;;9.90;6.53;;;20.20;57.20;;;;;;1490567;39;20027;-61
2021/07/20 00:55:52;;;;;;;8.80;6.43;;;20.20;57.20;;;;;;1486425;39;20379;-60
2021/07/20 00:57:13;;;;;;;9.70;6.50;;;20.20;57.20;;;;;;1487509;39;20044;-61
2021/07/20 00:58:34;;;;;;;10.75;7.13;;;20.20;57.20;;;;;;1490153;39;20458;-61
2021/07/20 00:59:56;;;;;;;9.02;6.15;;;20.10;57.10;;;;;;1490839;39;20030;-61
2021/07/20 01:01:17;;;;;;;10.20;7.28;;;20.10;57.20;;;;;;1490119;39;20380;-60
2021/07/20 01:02:39;;;;;;;11.20;6.78;;;20.10;57.10;;;;;;1488944;39;20035;-60
2021/07/20 01:03:59;;;;;;;11.82;7.50;;;20.00;57.10;;;;;;1488989;39;20113;-60
2021/07/20 01:05:23;;;;;;;9.90;6.80;;;20.00;57.20;;;;;;1488806;39;20124;-60
2021/07/20 01:06:46;;;;;;;11.80;7.75;;;20.00;57.40;;;;;;1487752;39;20036;-60
2021/07/20 01:08:07;;;;;;;9.88;7.43;;;20.00;57.40;;;;;;1490249;39;20280;-60
2021/07/20 01:09:29;;;;;;;11.95;7.38;;;20.00;57.50;;;;;;1489163;39;20072;-60
2021/07/20 01:10:51;;;;;;;10.85;6.95;;;20.00;57.60;;;;;;1483872;40;20114;-60
2021/07/20 01:12:14;;;;;;;9.13;6.72;;;19.90;57.50;;;;;;1487181;39;20031;-60
2021/07/20 01:13:37;;;;;;;9.27;6.90;;;19.90;57.60;;;;;;1488422;39;20040;-61
2021/07/20 01:14:58;;;;;;;10.85;7.15;;;19.90;57.60;;;;;;1484587;40;20098;-60
2021/07/20 01:16:19;;;;;;;11.05;6.85;;;19.90;57.70;;;;;;1484785;39;20570;-60
2021/07/20 01:17:43;;;;;;;10.82;7.22;;;19.90;57.80;;;;;;1491293;39;20031;-61
2021/07/20 01:19:06;;;;;;;9.68;7.22;;;19.80;57.80;;;;;;1491295;39;20367;-61
2021/07/20 01:20:29;;;;;;;11.50;7.55;;;19.80;57.80;;;;;;1487191;39;20490;-60
2021/07/20 01:21:53;;;;;;;10.75;7.53;;;19.80;57.80;;;;;;1488641;39;20120;-60
2021/07/20 01:23:20;;;;;;;12.38;8.23;;;19.80;57.90;;;;;;1489461;39;20031;-60
2021/07/20 01:24:41;;;;;;;10.07;7.43;;;19.80;58.00;;;;;;1489405;39;20031;-61
2021/07/20 01:26:03;;;;;;;10.25;6.82;;;19.80;57.80;;;;;;1488057;39;20348;-61
2021/07/20 01:27:24;;;;;;;13.82;7.90;;;19.80;57.80;;;;;;1488775;39;20032;-61
2021/07/20 01:28:46;;;;;;;13.60;7.75;;;19.80;58.00;;;;;;1487334;39;22006;-60
2021/07/20 01:30:08;;;;;;;10.32;7.03;;;19.70;58.70;;;;;;1489168;39;20020;-60
2021/07/20 01:31:31;;;;;;;12.13;7.20;;;19.70;58.70;;;;;;1487111;39;20048;-60
2021/07/20 01:32:55;;;;;;;10.95;7.68;;;19.70;58.20;;;;;;1488777;39;20089;-60
2021/07/20 01:34:18;;;;;;;12.98;8.13;;;19.70;58.30;;;;;;1489119;39;20055;-61
2021/07/20 01:35:42;;;;;;;13.07;6.85;;;19.70;58.30;;;;;;1488775;39;20269;-61
2021/07/20 01:37:05;;;;;;;9.43;6.65;;;19.70;58.20;;;;;;1487612;39;20454;-60
2021/07/20 01:38:27;;;;;;;8.20;5.70;;;19.70;58.20;;;;;;1487300;39;20032;-60
2021/07/20 01:39:49;;;;;;;10.73;7.18;;;19.70;58.30;;;;;;1490167;39;20372;-61
2021/07/20 01:41:15;;;;;;;9.60;6.75;;;19.70;58.40;;;;;;1489259;39;20028;-61
2021/07/20 01:42:41;;;;;;;11.77;7.93;;;19.70;58.60;;;;;;1487989;39;20048;-61
2021/07/20 01:44:06;;;;;;;9.13;6.75;;;19.70;58.60;;;;;;1484430;40;20025;-61
2021/07/20 01:45:30;;;;;;;10.45;7.43;;;19.60;58.70;;;;;;1487088;39;20436;-61
2021/07/20 01:46:52;;;;;;;11.73;7.03;;;19.60;58.70;;;;;;1487746;39;20461;-61
2021/07/20 01:48:13;;;;;;;9.48;6.95;;;19.60;58.60;;;;;;1488441;39;20044;-60
2021/07/20 01:49:35;;;;;;;11.23;7.40;;;19.60;58.60;;;;;;1489216;39;20125;-60
2021/07/20 01:50:57;;;;;;;10.02;7.72;;;19.60;58.70;;;;;;1488705;39;20028;-61
2021/07/20 01:52:18;;;;;;;11.35;7.28;;;19.60;58.80;;;;;;1487262;39;20043;-61
2021/07/20 01:53:40;;;;;;;9.00;6.80;;;19.60;58.70;;;;;;1490306;39;20118;-61
2021/07/20 01:55:02;;;;;;;9.23;6.40;;;19.60;58.80;;;;;;1488292;39;20036;-61
2021/07/20 01:56:23;;;;;;;11.68;7.22;;;19.60;58.80;;;;;;1489195;39;20024;-61
2021/07/20 01:57:44;;;;;;;8.23;6.70;;;19.50;58.90;;;;;;1489612;39;20050;-60
2021/07/20 01:59:11;;;;;;;8.98;6.22;;;19.50;58.90;;;;;;1483549;40;20036;-60
2021/07/20 02:00:32;;;;;;;10.90;7.28;;;19.50;59.10;;;;;;1488389;39;20034;-61
2021/07/20 02:02:04;;;;;;;11.02;7.32;;;19.50;59.00;;;;;;1489376;39;20032;-60
2021/07/20 02:03:44;;;;;;;10.98;6.97;;;19.50;59.00;;;;;;1489457;39;20042;-61
2021/07/20 02:08:29;;;;;;;9.48;6.88;;;19.50;59.00;;;;;;1490388;39;20049;-60
2021/07/20 02:09:53;;;;;;;8.57;6.57;;;19.40;58.90;;;;;;1486507;39;20041;-60
2021/07/20 02:11:24;;;;;;;9.10;6.88;;;19.40;58.90;;;;;;1487521;39;20365;-60
2021/07/20 02:12:45;;;;;;;8.80;6.70;;;19.40;59.20;;;;;;1488739;39;20426;-60
2021/07/20 02:14:11;;;;;;;11.45;7.82;;;19.40;59.00;;;;;;1489849;39;20069;-60
2021/07/20 02:15:37;;;;;;;9.38;6.57;;;19.40;59.20;;;;;;1488091;39;20035;-60
2021/07/20 02:17:01;;;;;;;9.63;6.38;;;19.40;59.30;;;;;;1489933;39;20138;-61
2021/07/20 02:18:27;;;;;;;10.65;7.40;;;19.40;59.40;;;;;;1487621;39;20675;-61
2021/07/20 02:20:06;;;;;;;9.13;6.60;;;19.30;59.40;;;;;;1489665;39;20040;-60
2021/07/20 02:21:29;;;;;;;9.82;7.13;;;19.40;59.70;;;;;;1486643;39;20029;-60
2021/07/20 02:22:54;;;;;;;9.50;6.38;;;19.30;59.30;;;;;;1489741;39;20331;-60
2021/07/20 02:24:17;;;;;;;12.68;7.72;;;19.30;59.60;;;;;;1490030;39;20105;-61
2021/07/20 02:25:40;;;;;;;11.30;6.93;;;19.30;59.60;;;;;;1487854;39;20036;-60
2021/07/20 02:27:04;;;;;;;11.43;7.30;;;19.30;59.60;;;;;;1487481;39;20089;-61
2021/07/20 02:28:27;;;;;;;9.90;6.93;;;19.30;59.60;;;;;;1489027;39;20121;-61
2021/07/20 02:29:51;;;;;;;10.45;6.82;;;19.20;59.60;;;;;;1486232;40;20084;-60
2021/07/20 02:31:14;;;;;;;11.35;6.97;;;19.20;59.70;;;;;;1489331;39;20043;-61
2021/07/20 02:32:35;;;;;;;12.60;7.50;;;19.20;59.80;;;;;;1487890;39;20043;-61
2021/07/20 02:33:56;;;;;;;12.00;7.35;;;19.20;59.70;;;;;;1489169;39;20031;-61
2021/07/20 02:35:23;;;;;;;11.52;7.65;;;19.20;59.80;;;;;;1488941;39;20383;-60
2021/07/20 02:36:45;;;;;;;11.00;7.00;;;19.20;59.90;;;;;;1489728;39;20310;-60
2021/07/20 02:38:06;;;;;;;11.38;7.30;;;19.20;59.80;;;;;;1488183;39;20342;-60
2021/07/20 02:39:29;;;;;;;11.32;7.07;;;19.20;59.70;;;;;;1489947;39;20109;-60
2021/07/20 02:40:50;;;;;;;10.50;7.32;;;19.20;59.80;;;;;;1487570;39;20034;-60
2021/07/20 02:42:13;;;;;;;10.25;7.72;;;19.20;59.80;;;;;;1488873;39;21834;-60
2021/07/20 02:43:36;;;;;;;10.75;7.45;;;19.10;59.80;;;;;;1487301;39;20825;-61
2021/07/20 02:44:58;;;;;;;11.57;7.55;;;19.10;59.90;;;;;;1488686;39;20064;-60
2021/07/20 02:46:19;;;;;;;9.98;7.00;;;19.10;59.90;;;;;;1489749;39;20032;-60
2021/07/20 02:47:42;;;;;;;11.75;7.95;;;19.10;59.90;;;;;;1488674;39;20031;-60
2021/07/20 02:49:04;;;;;;;12.20;6.93;;;19.10;59.90;;;;;;1489098;39;20028;-60
2021/07/20 02:50:28;;;;;;;10.95;7.25;;;19.10;60.60;;;;;;1488378;39;20048;-60
2021/07/20 02:51:51;;;;;;;11.82;7.43;;;19.00;60.00;;;;;;1489769;39;20030;-60
2021/07/20 02:53:13;;;;;;;9.75;7.20;;;19.00;60.00;;;;;;1487252;39;20039;-60
2021/07/20 02:54:35;;;;;;;10.80;7.32;;;19.00;60.00;;;;;;1488245;39;20035;-61
2021/07/20 02:55:58;;;;;;;10.10;7.55;;;19.00;60.10;;;;;;1489242;39;20071;-60
2021/07/20 02:57:19;;;;;;;9.85;6.82;;;19.00;60.30;;;;;;1487168;39;20061;-60
2021/07/20 02:58:43;;;;;;;14.10;7.53;;;19.00;60.30;;;;;;1488221;39;20044;-60
2021/07/20 03:00:07;;;;;;;11.30;7.45;;;19.00;60.50;;;;;;1488865;39;20031;-60
2021/07/20 03:01:30;;;;;;;11.65;7.38;;;18.90;60.50;;;;;;1488139;39;20041;-61
2021/07/20 03:02:52;;;;;;;10.00;6.95;;;19.00;60.80;;;;;;1488668;39;20030;-60
2021/07/20 03:04:13;;;;;;;11.45;6.97;;;18.90;60.70;;;;;;1487839;39;20289;-60
2021/07/20 03:05:34;;;;;;;12.77;7.78;;;18.90;60.70;;;;;;1491241;39;20044;-60
2021/07/20 03:07:03;;;;;;;11.95;8.18;;;18.90;60.80;;;;;;1489404;39;20019;-60
2021/07/20 03:08:29;;;;;;;11.88;7.63;;;18.90;61.00;;;;;;1487143;39;20072;-61
2021/07/20 03:09:52;;;;;;;10.30;7.53;;;18.90;60.80;;;;;;1488267;39;20040;-60
2021/07/20 03:11:15;;;;;;;12.45;7.18;;;18.90;60.80;;;;;;1489432;39;20029;-60
2021/07/20 03:12:37;;;;;;;11.98;7.35;;;18.90;60.80;;;;;;1489020;39;20040;-61
2021/07/20 03:14:04;;;;;;;14.32;9.30;;;18.90;60.80;;;;;;1487851;39;20150;-60
2021/07/20 03:15:25;;;;;;;13.55;8.90;;;18.90;61.00;;;;;;1489159;39;20072;-60
2021/07/20 03:16:47;;;;;;;10.80;7.47;;;18.90;60.90;;;;;;1488608;39;20027;-60
2021/07/20 03:18:09;;;;;;;12.02;7.78;;;18.80;60.80;;;;;;1487674;39;20126;-60
2021/07/20 03:19:32;;;;;;;10.98;7.32;;;18.90;61.00;;;;;;1487848;39;20420;-60
2021/07/20 03:20:54;;;;;;;13.55;8.20;;;18.80;60.90;;;;;;1490574;39;20341;-61
2021/07/20 03:22:15;;;;;;;15.05;8.88;;;18.80;61.00;;;;;;1489289;39;20024;-61
2021/07/20 03:23:38;;;;;;;13.13;8.02;;;18.80;61.10;;;;;;1490110;39;20039;-61
2021/07/20 03:25:01;;;;;;;13.23;8.55;;;18.80;61.20;;;;;;1488158;39;20105;-61
2021/07/20 03:26:24;;;;;;;12.85;8.43;;;18.80;61.30;;;;;;1488189;39;20360;-61
2021/07/20 03:27:46;;;;;;;11.73;7.72;;;18.80;61.10;;;;;;1489627;39;20324;-61
2021/07/20 03:29:09;;;;;;;12.05;8.27;;;18.80;61.20;;;;;;1488116;39;20032;-61
2021/07/20 03:30:32;;;;;;;13.93;8.40;;;18.80;61.40;;;;;;1489040;39;20679;-61
2021/07/20 03:31:54;;;;;;;12.52;8.73;;;18.80;61.30;;;;;;1488336;39;20071;-61
2021/07/20 03:33:20;;;;;;;12.93;8.77;;;18.70;61.30;;;;;;1488199;39;20025;-61
2021/07/20 03:34:44;;;;;;;12.25;8.05;;;18.70;61.40;;;;;;1489918;39;20024;-61
2021/07/20 03:36:06;;;;;;;15.20;8.45;;;18.80;61.50;;;;;;1486758;39;20055;-61
2021/07/20 03:37:27;;;;;;;14.90;8.82;;;18.70;61.50;;;;;;1489653;39;20028;-61
2021/07/20 03:38:49;;;;;;;13.93;8.57;;;18.70;61.60;;;;;;1487428;39;20028;-61
2021/07/20 03:40:11;;;;;;;12.75;7.63;;;18.70;61.50;;;;;;1490265;39;20027;-61
2021/07/20 03:41:33;;;;;;;13.20;8.77;;;18.70;61.60;;;;;;1488159;39;20039;-61
2021/07/20 03:42:56;;;;;;;13.57;7.90;;;18.70;61.80;;;;;;1487438;39;20028;-61
2021/07/20 03:44:17;;;;;;;13.23;8.73;;;18.60;61.80;;;;;;1488682;39;20024;-61
2021/07/20 03:45:38;;;;;;;15.20;8.48;;;18.70;61.80;;;;;;1488872;39;20391;-61
2021/07/20 03:47:00;;;;;;;13.82;9.13;;;18.70;61.90;;;;;;1483132;40;20028;-61
2021/07/20 03:48:22;;;;;;;15.00;9.98;;;18.60;61.80;;;;;;1487038;39;20036;-61
2021/07/20 03:49:44;;;;;;;13.15;8.38;;;18.60;61.80;;;;;;1490372;39;20044;-61
2021/07/20 03:51:05;;;;;;;14.63;9.32;;;18.60;61.90;;;;;;1489924;39;20024;-62
2021/07/20 03:52:27;;;;;;;13.23;7.93;;;18.60;61.80;;;;;;1489042;39;20093;-59
2021/07/20 03:53:50;;;;;;;14.90;8.77;;;18.60;62.00;;;;;;1489578;39;20044;-61
2021/07/20 03:55:11;;;;;;;13.70;8.82;;;18.60;62.20;;;;;;1488890;39;20035;-62
2021/07/20 03:56:33;;;;;;;12.70;8.43;;;18.60;62.10;;;;;;1490184;39;20039;-61
2021/07/20 03:57:55;;;;;;;13.55;8.57;;;18.50;62.10;;;;;;1488120;39;20039;-59
2021/07/20 03:59:18;;;;;;;12.88;8.45;;;18.60;62.10;;;;;;1489205;39;20175;-61
2021/07/20 04:00:39;;;;;;;13.98;8.85;;;18.50;62.00;;;;;;1487548;39;20024;-62
2021/07/20 04:02:02;;;;;;;12.35;8.30;;;18.50;62.00;;;;;;1488047;39;20348;-62
2021/07/20 04:03:25;;;;;;;13.57;8.77;;;18.50;62.90;;;;;;1488144;39;20055;-62
2021/07/20 04:04:47;;;;;;;12.35;9.07;;;18.50;62.20;;;;;;1484417;40;20024;-62
2021/07/20 04:06:10;;;;;;;13.40;9.27;;;18.50;62.20;;;;;;1487761;39;20040;-61
2021/07/20 04:07:32;;;;;;;15.48;9.55;;;18.50;62.30;;;;;;1487476;39;20040;-61
2021/07/20 04:08:55;;;;;;;12.60;8.52;;;18.50;62.30;;;;;;1488642;39;20110;-59
2021/07/20 04:10:16;;;;;;;14.63;8.93;;;18.50;62.30;;;;;;1488306;39;20064;-60
2021/07/20 04:11:39;;;;;;;14.55;8.85;;;18.50;62.40;;;;;;1490273;39;20414;-60
2021/07/20 04:13:00;;;;;;;17.73;9.35;;;18.50;62.40;;;;;;1488015;39;20031;-60
2021/07/20 04:14:22;;;;;;;16.00;9.50;;;18.50;62.40;;;;;;1489094;39;20035;-61
2021/07/20 04:15:50;;;;;;;14.43;9.80;;;18.50;62.40;;;;;;1489517;39;20415;-61
2021/07/20 04:17:13;;;;;;;15.32;9.88;;;18.50;62.60;;;;;;1489127;39;20030;-59
2021/07/20 04:18:38;;;;;;;14.68;10.00;;;18.40;62.50;;;;;;1486176;39;20051;-60
2021/07/20 04:19:59;;;;;;;13.82;9.23;;;18.40;62.70;;;;;;1482974;40;20032;-60
2021/07/20 04:21:20;;;;;;;15.63;8.73;;;18.40;62.40;;;;;;1484722;40;20040;-60
2021/07/20 04:22:43;;;;;;;16.70;10.05;;;18.40;62.60;;;;;;1484066;40;20261;-60
2021/07/20 04:24:04;;;;;;;14.95;9.65;;;18.40;62.60;;;;;;1485231;40;20033;-60
2021/07/20 04:25:25;;;;;;;15.63;9.73;;;18.40;62.60;;;;;;1483171;40;20024;-60
2021/07/20 04:26:46;;;;;;;17.17;9.23;;;18.40;62.70;;;;;;1485543;40;20024;-61
2021/07/20 04:28:08;;;;;;;14.95;9.52;;;18.40;62.70;;;;;;1484961;40;20398;-62
2021/07/20 04:29:29;;;;;;;13.35;8.90;;;18.40;62.80;;;;;;1483412;40;20037;-60
2021/07/20 04:30:51;;;;;;;14.68;10.07;;;18.40;62.90;;;;;;1484145;40;20061;-61
2021/07/20 04:32:15;;;;;;;16.17;8.98;;;18.40;63.00;;;;;;1484352;40;20073;-59
2021/07/20 04:33:37;;;;;;;12.15;8.48;;;18.30;63.00;;;;;;1484762;40;20040;-61
2021/07/20 04:34:58;;;;;;;13.02;8.38;;;18.30;62.90;;;;;;1485251;40;20056;-61
2021/07/20 04:36:21;;;;;;;16.70;9.38;;;18.40;63.00;;;;;;1485180;40;20055;-61
2021/07/20 04:37:42;;;;;;;14.23;8.95;;;18.30;63.10;;;;;;1483767;40;20032;-61
2021/07/20 04:39:05;;;;;;;14.40;9.30;;;18.30;63.10;;;;;;1482967;40;20055;-60
2021/07/20 04:40:26;;;;;;;16.48;10.25;;;18.30;63.40;;;;;;1485304;40;20029;-60
2021/07/20 04:41:48;;;;;;;16.40;9.23;;;18.30;63.40;;;;;;1483102;40;20113;-60
2021/07/20 04:43:11;;;;;;;14.13;9.25;;;18.30;63.40;;;;;;1483531;40;20380;-60
2021/07/20 04:44:32;;;;;;;16.20;9.23;;;18.30;63.60;;;;;;1486093;40;20043;-60
2021/07/20 04:45:56;;;;;;;12.27;8.25;;;18.30;63.40;;;;;;1484590;40;20027;-60
2021/07/20 04:47:20;;;;;;;13.52;9.30;;;18.30;63.60;;;;;;1483881;40;20039;-60
2021/07/20 04:48:41;;;;;;;13.60;8.70;;;18.30;63.70;;;;;;1482807;40;20053;-60
2021/07/20 04:50:08;;;;;;;13.73;9.07;;;18.30;63.60;;;;;;1482914;40;20040;-60
2021/07/20 04:51:31;;;;;;;14.88;9.52;;;18.30;63.70;;;;;;1483648;40;20044;-60
2021/07/20 04:52:52;;;;;;;16.90;10.38;;;18.30;63.60;;;;;;1484922;40;20059;-60
2021/07/20 04:54:15;;;;;;;15.18;9.32;;;18.30;63.60;;;;;;1483393;40;20033;-60
2021/07/20 04:55:38;;;;;;;15.85;9.65;;;18.30;63.70;;;;;;1485297;40;20040;-60
2021/07/20 04:56:59;;;;;;;13.75;8.27;;;18.30;63.70;;;;;;1482657;40;20033;-60
2021/07/20 04:58:20;;;;;;;16.48;10.15;;;18.30;63.70;;;;;;1485913;40;20071;-59
2021/07/20 04:59:41;;;;;;;18.88;10.18;;;18.30;63.90;;;;;;1483494;40;20354;-60
2021/07/20 05:01:04;;;;;;;16.95;9.90;;;18.30;64.00;;;;;;1482466;40;20012;-60
2021/07/20 05:02:25;;;;;;;17.17;10.23;;;18.30;64.80;;;;;;1483210;40;20029;-60
2021/07/20 05:03:47;;;;;;;14.02;9.10;;;18.30;64.10;;;;;;1481906;40;20021;-59
2021/07/20 05:05:09;;;;;;;14.98;9.10;;;18.30;64.10;;;;;;1485045;40;20044;-60
2021/07/20 05:06:31;;;;;;;16.30;10.50;;;18.30;64.20;;;;;;1482416;40;20033;-60
2021/07/20 05:07:56;;;;;;;15.52;9.98;;;18.30;64.40;;;;;;1483538;40;20036;-60
2021/07/20 05:09:18;;;;;;;17.35;10.05;;;18.30;64.50;;;;;;1485112;40;20512;-60
2021/07/20 05:10:39;;;;;;;18.27;10.10;;;18.30;64.40;;;;;;1486602;39;20048;-60
2021/07/20 05:12:01;;;;;;;17.50;10.00;;;18.40;64.50;;;;;;1484497;40;20024;-62
2021/07/20 05:13:22;;;;;;;17.60;10.75;;;18.30;64.50;;;;;;1485456;40;20024;-61
2021/07/20 05:14:43;;;;;;;15.27;9.85;;;18.30;64.60;;;;;;1486448;40;20028;-61
2021/07/20 05:16:06;;;;;;;17.52;10.50;;;18.30;64.60;;;;;;1484204;40;20025;-61
2021/07/20 05:17:27;;;;;;;14.85;9.55;;;18.40;64.70;;;;;;1482601;40;20239;-61
2021/07/20 05:18:48;;;;;;;14.88;9.75;;;18.40;64.70;;;;;;1489675;39;20046;-60
2021/07/20 05:20:11;;;;;;;16.55;9.88;;;18.30;64.80;;;;;;1490139;39;20053;-61
2021/07/20 05:21:34;;;;;;;16.95;10.20;;;18.40;65.00;;;;;;1490482;39;20035;-61
2021/07/20 05:22:56;;;;;;;17.15;10.32;;;18.40;65.00;;;;;;1486575;39;20045;-60
2021/07/20 05:24:17;;;;;;;20.13;9.98;;;18.40;65.00;;;;;;1490094;39;20036;-60
2021/07/20 05:25:39;;;;;;;18.20;10.90;;;18.40;65.00;;;;;;1490633;39;20044;-61
2021/07/20 05:27:02;;;;;;;17.00;10.45;;;18.40;65.20;;;;;;1488750;39;20038;-61
2021/07/20 05:28:24;;;;;;;16.65;10.30;;;18.40;65.20;;;;;;1487845;39;20112;-61
2021/07/20 05:29:47;;;;;;;16.00;9.77;;;18.40;65.30;;;;;;1490123;39;20032;-61
2021/07/20 05:31:09;;;;;;;16.25;10.45;;;18.40;65.40;;;;;;1489646;39;20044;-61
2021/07/20 05:32:32;;;;;;;16.65;9.90;;;18.40;65.40;;;;;;1487074;39;20519;-61
2021/07/20 05:33:53;;;;;;;16.55;9.40;;;18.40;65.40;;;;;;1487630;39;20063;-61
2021/07/20 05:35:16;;;;;;;16.00;9.63;;;18.50;65.60;;;;;;1487746;39;20032;-61
2021/07/20 05:36:38;;;;;;;17.30;10.00;;;18.40;65.50;;;;;;1487810;39;20063;-61
2021/07/20 05:37:59;;;;;;;16.73;10.43;;;18.50;65.50;;;;;;1488467;39;20066;-61
2021/07/20 05:39:20;;;;;;;16.00;10.02;;;18.50;65.40;;;;;;1487597;39;20032;-61
2021/07/20 05:40:41;;;;;;;17.90;11.13;;;18.50;65.50;;;;;;1487657;39;20182;-61
2021/07/20 05:42:04;;;;;;;15.68;9.80;;;18.60;65.70;;;;;;1486691;39;20025;-62
2021/07/20 05:43:27;;;;;;;18.65;10.98;;;18.50;65.70;;;;;;1488430;39;20035;-61
2021/07/20 05:44:49;;;;;;;16.60;10.57;;;18.50;65.80;;;;;;1490186;39;20296;-61
2021/07/20 05:46:11;;;;;;;19.30;10.90;;;18.60;65.90;;;;;;1486635;39;20050;-61
2021/07/20 05:47:35;;;;;;;18.02;10.65;;;18.60;65.90;;;;;;1488807;39;20067;-61
2021/07/20 05:48:57;;;;;;;18.30;10.30;;;18.60;66.00;;;;;;1489549;39;20058;-61
2021/07/20 05:50:19;;;;;;;17.73;10.52;;;18.60;65.80;;;;;;1486629;39;20116;-61
2021/07/20 05:51:41;;;;;;;15.15;9.60;;;18.60;65.80;;;;;;1489421;39;20369;-61
2021/07/20 05:53:02;;;;;;;17.55;10.25;;;18.60;65.70;;;;;;1487655;39;20040;-61
2021/07/20 05:54:24;;;;;;;17.95;9.88;;;18.60;65.70;;;;;;1487027;39;20381;-62
2021/07/20 05:55:49;;;;;;;19.05;10.25;;;18.70;66.00;;;;;;1489826;39;20038;-61
2021/07/20 05:57:12;;;;;;;16.90;10.50;;;18.70;66.00;;;;;;1487978;39;20101;-61
2021/07/20 05:58:33;;;;;;;16.77;10.65;;;18.70;65.90;;;;;;1490636;39;20608;-61
2021/07/20 05:59:55;;;;;;;17.17;10.27;;;18.70;65.80;;;;;;1490113;39;20027;-61
2021/07/20 06:01:16;;;;;;;18.60;10.98;;;18.80;65.80;;;;;;1486017;39;20036;-59
2021/07/20 06:02:39;;;;;;;19.27;10.77;;;18.80;65.90;;;;;;1489242;39;20036;-59
2021/07/20 06:04:01;;;;;;;19.15;11.38;;;18.80;65.90;;;;;;1487372;39;20077;-61
2021/07/20 06:05:27;;;;;;;17.38;11.18;;;18.80;65.80;;;;;;1486669;39;20052;-62
2021/07/20 06:06:49;;;;;;;17.83;10.55;;;18.80;65.70;;;;;;1486965;39;20084;-61
2021/07/20 06:08:15;;;;;;;18.38;10.52;;;18.80;65.70;;;;;;1486498;39;20442;-61
2021/07/20 06:09:36;;;;;;;20.58;10.60;;;18.90;65.60;;;;;;1489152;39;20054;-61
2021/07/20 06:11:00;;;;;;;20.33;12.05;;;18.90;65.50;;;;;;1489189;39;20028;-61
2021/07/20 06:12:23;;;;;;;17.80;10.70;;;18.90;65.70;;;;;;1488664;39;20032;-61
2021/07/20 06:13:45;;;;;;;20.08;11.63;;;18.90;65.70;;;;;;1487412;39;20544;-61
2021/07/20 06:15:08;;;;;;;19.73;12.13;;;18.90;65.70;;;;;;1489353;39;20024;-61
2021/07/20 06:16:30;;;;;;;18.58;10.73;;;18.90;65.50;;;;;;1488846;39;20044;-61
2021/07/20 06:17:51;;;;;;;17.73;10.50;;;19.00;65.50;;;;;;1487272;39;20021;-61
2021/07/20 06:19:12;;;;;;;19.00;11.32;;;19.00;65.50;;;;;;1486595;39;20301;-62
2021/07/20 06:20:36;;;;;;;18.20;10.45;;;19.00;65.60;;;;;;1488346;39;20102;-61
2021/07/20 06:21:59;;;;;;;21.70;11.65;;;19.00;65.50;;;;;;1488982;39;20021;-60
2021/07/20 06:23:21;;;;;;;17.42;10.35;;;19.10;65.50;;;;;;1490304;39;20145;-62
2021/07/20 06:24:44;;;;;;;19.63;10.98;;;19.10;65.40;;;;;;1487393;39;20052;-60
2021/07/20 06:26:05;;;;;;;18.75;11.63;;;19.00;65.30;;;;;;1489279;39;20016;-60
2021/07/20 06:27:28;;;;;;;24.48;11.65;;;19.10;65.30;;;;;;1488951;39;20029;-61
2021/07/20 06:28:53;;;;;;;21.75;10.50;;;19.10;65.40;;;;;;1488412;39;20113;-60
2021/07/20 06:30:15;;;;;;;17.38;10.15;;;19.10;65.50;;;;;;1486750;39;20105;-60
2021/07/20 06:31:39;;;;;;;17.13;9.93;;;19.10;65.60;;;;;;1488432;39;20032;-60
2021/07/20 06:33:00;;;;;;;18.63;11.05;;;19.20;65.70;;;;;;1484525;40;20033;-60
2021/07/20 06:34:22;;;;;;;14.70;9.85;;;19.20;65.60;;;;;;1490287;39;20031;-60
2021/07/20 06:35:44;;;;;;;19.42;11.40;;;19.20;65.50;;;;;;1487558;39;20259;-60
2021/07/20 06:37:05;;;;;;;16.42;10.32;;;19.30;65.60;;;;;;1488042;39;20028;-60
2021/07/20 06:38:28;;;;;;;17.80;11.25;;;19.30;65.60;;;;;;1488000;39;20039;-60
2021/07/20 06:39:49;;;;;;;17.25;11.07;;;19.30;65.40;;;;;;1491369;39;20356;-60
2021/07/20 06:41:11;;;;;;;18.05;11.27;;;19.40;65.30;;;;;;1487472;39;20027;-60
2021/07/20 06:42:32;;;;;;;18.25;10.75;;;19.40;65.30;;;;;;1488575;39;20020;-60
2021/07/20 06:43:54;;;;;;;20.58;10.57;;;19.40;65.30;;;;;;1486801;39;20020;-60
2021/07/20 06:45:16;;;;;;;19.77;10.85;;;19.40;65.30;;;;;;1488628;39;20036;-59
2021/07/20 06:46:37;;;;;;;14.05;10.02;;;19.50;65.30;;;;;;1489679;39;20039;-60
2021/07/20 06:47:58;;;;;;;17.85;10.50;;;19.50;65.40;;;;;;1488029;39;20020;-60
2021/07/20 06:49:21;;;;;;;17.40;10.20;;;19.50;65.30;;;;;;1490854;39;20035;-60
2021/07/20 06:50:43;;;;;;;17.67;10.15;;;19.50;65.40;;;;;;1487240;39;20047;-60
2021/07/20 06:52:07;;;;;;;17.80;10.10;;;19.60;65.20;;;;;;1488056;39;20448;-60
2021/07/20 06:53:29;;;;;;;17.17;10.43;;;19.60;65.10;;;;;;1489735;39;20036;-60
2021/07/20 06:54:50;;;;;;;15.43;9.68;;;19.60;65.60;;;;;;1487454;39;20032;-60
2021/07/20 06:56:20;;;;;;;16.25;10.07;;;19.60;65.00;;;;;;1489163;39;20257;-60
2021/07/20 06:57:42;;;;;;;;;;;19.70;65.10;;;;;;1488561;39;20389;-60
2021/07/20 06:59:04;;;;;;;14.00;8.35;;;19.70;64.80;;;;;;1487161;39;19944;-60
2021/07/20 07:00:25;;;;;;;16.67;10.57;;;19.80;64.70;;;;;;1488792;39;20069;-60
2021/07/20 07:01:48;;;;;;;18.65;10.80;;;19.80;64.70;;;;;;1487978;39;20028;-60
2021/07/20 07:03:10;;;;;;;24.58;10.98;;;19.80;64.60;;;;;;1487966;39;20109;-60
2021/07/20 07:05:01;;;;;;;39.30;12.95;;;19.90;64.70;;;;;;1490368;39;20028;-60
2021/07/20 07:06:24;;;;;;;20.20;10.43;;;19.90;64.80;;;;;;1487819;39;20516;-60
2021/07/20 07:07:47;;;;;;;18.58;10.38;;;19.90;64.70;;;;;;1490099;39;20058;-60